sensor_id;sensor_type;location;lat;lon;timestamp;pressure;altitude;pressure_sealevel;temperature;humidity
71384;BME280;67558;52.166;5.004;2023-03-15T00:00:48;101259.66;;;5.11;68.13
71384;BME280;67558;52.166;5.004;2023-03-15T00:03:13;101267.38;;;5.12;68.43
71384;BME280;67558;52.166;5.004;2023-03-15T00:05:44;101254.00;;;5.01;68.96
71384;BME280;67558;52.166;5.004;2023-03-15T00:08:10;101260.31;;;5.06;68.80
71384;BME280;67558;52.166;5.004;2023-03-15T00:10:41;101266.03;;;5.03;68.60
71384;BME280;67558;52.166;5.004;2023-03-15T00:13:08;101277.00;;;5.07;68.43
71384;BME280;67558;52.166;5.004;2023-03-15T00:15:33;101268.66;;;5.03;68.44
71384;BME280;67558;52.166;5.004;2023-03-15T00:17:59;101264.19;;;5.04;68.64
71384;BME280;67558;52.166;5.004;2023-03-15T00:20:27;101253.22;;;5.00;68.59
71384;BME280;67558;52.166;5.004;2023-03-15T00:22:53;101265.06;;;4.98;68.58
71384;BME280;67558;52.166;5.004;2023-03-15T00:25:18;101260.63;;;4.91;68.41
71384;BME280;67558;52.166;5.004;2023-03-15T00:27:43;101260.63;;;4.91;68.62
71384;BME280;67558;52.166;5.004;2023-03-15T00:30:09;101272.69;;;4.87;68.49
71384;BME280;67558;52.166;5.004;2023-03-15T00:32:34;101267.81;;;4.84;69.05
71384;BME280;67558;52.166;5.004;2023-03-15T00:35:00;101281.94;;;4.78;68.83
71384;BME280;67558;52.166;5.004;2023-03-15T00:37:25;101274.19;;;4.77;68.90
71384;BME280;67558;52.166;5.004;2023-03-15T00:39:51;101273.78;;;4.73;69.11
71384;BME280;67558;52.166;5.004;2023-03-15T00:42:19;101261.03;;;4.63;69.52
71384;BME280;67558;52.166;5.004;2023-03-15T00:44:45;101275.84;;;4.71;69.31
71384;BME280;67558;52.166;5.004;2023-03-15T00:47:11;101267.31;;;4.69;69.65
71384;BME280;67558;52.166;5.004;2023-03-15T00:49:38;101271.75;;;4.75;69.76
71384;BME280;67558;52.166;5.004;2023-03-15T00:52:03;101283.53;;;4.79;69.53
71384;BME280;67558;52.166;5.004;2023-03-15T00:54:29;101290.63;;;4.85;69.91
71384;BME280;67558;52.166;5.004;2023-03-15T00:56:58;101298.78;;;4.90;69.77
71384;BME280;67558;52.166;5.004;2023-03-15T00:59:23;101304.84;;;4.98;69.73
71384;BME280;67558;52.166;5.004;2023-03-15T01:01:48;101303.38;;;5.02;69.56
71384;BME280;67558;52.166;5.004;2023-03-15T01:04:14;101308.03;;;5.06;69.42
71384;BME280;67558;52.166;5.004;2023-03-15T01:06:39;101285.06;;;4.93;69.11
71384;BME280;67558;52.166;5.004;2023-03-15T01:09:07;101314.34;;;5.05;69.13
71384;BME280;67558;52.166;5.004;2023-03-15T01:11:32;101312.53;;;5.06;69.36
71384;BME280;67558;52.166;5.004;2023-03-15T01:13:58;101320.47;;;5.06;69.37
71384;BME280;67558;52.166;5.004;2023-03-15T01:16:24;101307.63;;;5.03;69.52
71384;BME280;67558;52.166;5.004;2023-03-15T01:18:50;101322.94;;;5.01;69.42
71384;BME280;67558;52.166;5.004;2023-03-15T01:21:16;101315.66;;;4.96;69.37
71384;BME280;67558;52.166;5.004;2023-03-15T01:23:42;101321.13;;;5.01;69.55
71384;BME280;67558;52.166;5.004;2023-03-15T01:26:10;101332.53;;;5.02;69.13
71384;BME280;67558;52.166;5.004;2023-03-15T01:28:36;101323.41;;;4.98;69.25
71384;BME280;67558;52.166;5.004;2023-03-15T01:31:02;101327.94;;;4.90;69.67
71384;BME280;67558;52.166;5.004;2023-03-15T01:33:28;101337.50;;;4.91;70.07
71384;BME280;67558;52.166;5.004;2023-03-15T01:36:03;101331.22;;;4.86;70.11
71384;BME280;67558;52.166;5.004;2023-03-15T01:38:30;101333.25;;;4.84;70.00
71384;BME280;67558;52.166;5.004;2023-03-15T01:40:55;101346.69;;;4.89;69.72
71384;BME280;67558;52.166;5.004;2023-03-15T01:43:23;101347.34;;;4.84;69.81
71384;BME280;67558;52.166;5.004;2023-03-15T01:49:06;101345.63;;;4.65;70.34
71384;BME280;67558;52.166;5.004;2023-03-15T01:51:56;101357.63;;;4.67;70.84
71384;BME280;67558;52.166;5.004;2023-03-15T01:54:44;101350.72;;;4.60;70.39
71384;BME280;67558;52.166;5.004;2023-03-15T01:57:23;101362.38;;;4.59;70.08
71384;BME280;67558;52.166;5.004;2023-03-15T02:00:06;101367.28;;;4.55;70.21
71384;BME280;67558;52.166;5.004;2023-03-15T02:02:40;101372.16;;;4.51;69.87
71384;BME280;67558;52.166;5.004;2023-03-15T02:05:13;101365.88;;;4.53;69.24
71384;BME280;67558;52.166;5.004;2023-03-15T02:07:42;101363.63;;;4.49;69.74
71384;BME280;67558;52.166;5.004;2023-03-15T02:10:17;101366.69;;;4.46;69.57
71384;BME280;67558;52.166;5.004;2023-03-15T02:12:46;101365.09;;;4.45;69.77
71384;BME280;67558;52.166;5.004;2023-03-15T02:15:16;101375.09;;;4.43;69.66
71384;BME280;67558;52.166;5.004;2023-03-15T02:17:44;101365.31;;;4.37;69.88
71384;BME280;67558;52.166;5.004;2023-03-15T02:22:53;101383.25;;;4.35;70.55
71384;BME280;67558;52.166;5.004;2023-03-15T02:27:58;101385.50;;;4.31;70.29
71384;BME280;67558;52.166;5.004;2023-03-15T02:30:24;101384.69;;;4.31;70.36
71384;BME280;67558;52.166;5.004;2023-03-15T02:32:50;101373.53;;;4.22;70.69
71384;BME280;67558;52.166;5.004;2023-03-15T02:35:27;101402.84;;;4.27;70.84
71384;BME280;67558;52.166;5.004;2023-03-15T02:37:53;101408.34;;;4.33;70.70
71384;BME280;67558;52.166;5.004;2023-03-15T02:40:21;101411.38;;;4.36;71.03
71384;BME280;67558;52.166;5.004;2023-03-15T02:42:50;101415.81;;;4.42;70.97
71384;BME280;67558;52.166;5.004;2023-03-15T02:45:18;101422.34;;;4.46;70.70
71384;BME280;67558;52.166;5.004;2023-03-15T02:47:44;101417.03;;;4.46;70.50
71384;BME280;67558;52.166;5.004;2023-03-15T02:50:11;101420.69;;;4.52;70.34
71384;BME280;67558;52.166;5.004;2023-03-15T02:52:36;101421.31;;;4.54;70.77
71384;BME280;67558;52.166;5.004;2023-03-15T02:55:01;101423.53;;;4.57;70.41
71384;BME280;67558;52.166;5.004;2023-03-15T02:57:27;101434.53;;;4.61;70.32
71384;BME280;67558;52.166;5.004;2023-03-15T02:59:53;101430.88;;;4.55;70.28
71384;BME280;67558;52.166;5.004;2023-03-15T03:02:19;101433.31;;;4.57;70.18
71384;BME280;67558;52.166;5.004;2023-03-15T03:04:45;101446.75;;;4.55;69.98
71384;BME280;67558;52.166;5.004;2023-03-15T03:07:10;101457.19;;;4.50;70.18
71384;BME280;67558;52.166;5.004;2023-03-15T03:09:36;101452.94;;;4.36;70.15
71384;BME280;67558;52.166;5.004;2023-03-15T03:12:01;101459.66;;;4.31;70.34
71384;BME280;67558;52.166;5.004;2023-03-15T03:14:27;101464.34;;;4.36;70.21
71384;BME280;67558;52.166;5.004;2023-03-15T03:16:53;101457.44;;;4.28;70.34
71384;BME280;67558;52.166;5.004;2023-03-15T03:19:18;101463.56;;;4.22;70.33
71384;BME280;67558;52.166;5.004;2023-03-15T03:21:43;101469.88;;;4.15;70.69
71384;BME280;67558;52.166;5.004;2023-03-15T03:24:10;101470.50;;;4.10;70.47
71384;BME280;67558;52.166;5.004;2023-03-15T03:26:36;101486.38;;;4.10;70.52
71384;BME280;67558;52.166;5.004;2023-03-15T03:29:03;101478.06;;;4.13;70.14
71384;BME280;67558;52.166;5.004;2023-03-15T03:31:30;101480.91;;;4.12;70.18
71384;BME280;67558;52.166;5.004;2023-03-15T03:33:58;101490.25;;;4.07;70.65
71384;BME280;67558;52.166;5.004;2023-03-15T03:36:23;101501.84;;;4.06;71.10
71384;BME280;67558;52.166;5.004;2023-03-15T03:38:49;101492.72;;;4.02;70.71
71384;BME280;67558;52.166;5.004;2023-03-15T03:41:15;101517.16;;;4.04;71.07
71384;BME280;67558;52.166;5.004;2023-03-15T03:43:40;101519.81;;;4.04;71.23
71384;BME280;67558;52.166;5.004;2023-03-15T03:46:06;101525.50;;;4.08;71.56
71384;BME280;67558;52.166;5.004;2023-03-15T03:48:31;101526.31;;;4.08;71.09
71384;BME280;67558;52.166;5.004;2023-03-15T03:50:57;101520.81;;;4.10;71.76
71384;BME280;67558;52.166;5.004;2023-03-15T03:53:23;101527.94;;;4.16;71.62
71384;BME280;67558;52.166;5.004;2023-03-15T03:55:48;101521.41;;;4.19;71.62
71384;BME280;67558;52.166;5.004;2023-03-15T03:58:14;101515.31;;;4.18;71.62
71384;BME280;67558;52.166;5.004;2023-03-15T04:00:39;101524.88;;;4.26;71.19
71384;BME280;67558;52.166;5.004;2023-03-15T04:03:06;101529.16;;;4.27;71.32
71384;BME280;67558;52.166;5.004;2023-03-15T04:05:32;101532.81;;;4.33;71.46
71384;BME280;67558;52.166;5.004;2023-03-15T04:07:57;101525.50;;;4.35;71.35
71384;BME280;67558;52.166;5.004;2023-03-15T04:10:22;101548.09;;;4.37;71.25
71384;BME280;67558;52.166;5.004;2023-03-15T04:12:52;101551.34;;;4.39;71.06
71384;BME280;67558;52.166;5.004;2023-03-15T04:15:17;101546.66;;;4.41;70.94
71384;BME280;67558;52.166;5.004;2023-03-15T04:17:43;101539.13;;;4.31;70.83
71384;BME280;67558;52.166;5.004;2023-03-15T04:20:08;101559.91;;;4.41;70.81
71384;BME280;67558;52.166;5.004;2023-03-15T04:22:36;101562.75;;;4.40;70.93
71384;BME280;67558;52.166;5.004;2023-03-15T04:25:02;101565.41;;;4.40;70.96
71384;BME280;67558;52.166;5.004;2023-03-15T04:27:28;101565.59;;;4.38;70.95
71384;BME280;67558;52.166;5.004;2023-03-15T04:29:53;101564.19;;;4.36;70.77
71384;BME280;67558;52.166;5.004;2023-03-15T04:32:19;101569.47;;;4.36;70.94
71384;BME280;67558;52.166;5.004;2023-03-15T04:34:44;101566.03;;;4.35;70.92
71384;BME280;67558;52.166;5.004;2023-03-15T04:37:09;101564.63;;;4.33;70.81
71384;BME280;67558;52.166;5.004;2023-03-15T04:39:35;101571.94;;;4.30;70.90
71384;BME280;67558;52.166;5.004;2023-03-15T04:42:00;101581.09;;;4.28;70.90
71384;BME280;67558;52.166;5.004;2023-03-15T04:44:25;101578.66;;;4.26;71.22
71384;BME280;67558;52.166;5.004;2023-03-15T04:46:53;101591.28;;;4.31;71.15
71384;BME280;67558;52.166;5.004;2023-03-15T04:49:18;101589.88;;;4.28;70.89
71384;BME280;67558;52.166;5.004;2023-03-15T04:51:43;101590.25;;;4.32;70.76
71384;BME280;67558;52.166;5.004;2023-03-15T04:54:09;101589.44;;;4.31;71.03
71384;BME280;67558;52.166;5.004;2023-03-15T04:56:34;101591.91;;;4.33;71.02
71384;BME280;67558;52.166;5.004;2023-03-15T04:59:01;101597.00;;;4.35;70.88
71384;BME280;67558;52.166;5.004;2023-03-15T05:01:29;101610.63;;;4.38;71.05
71384;BME280;67558;52.166;5.004;2023-03-15T05:03:56;101612.28;;;4.39;70.84
71384;BME280;67558;52.166;5.004;2023-03-15T05:06:21;101620.00;;;4.41;70.84
71384;BME280;67558;52.166;5.004;2023-03-15T05:08:46;101627.56;;;4.44;70.84
71384;BME280;67558;52.166;5.004;2023-03-15T05:11:12;101616.16;;;4.43;70.76
71384;BME280;67558;52.166;5.004;2023-03-15T05:13:37;101630.22;;;4.44;70.75
71384;BME280;67558;52.166;5.004;2023-03-15T05:16:03;101631.22;;;4.43;70.81
71384;BME280;67558;52.166;5.004;2023-03-15T05:18:28;101631.84;;;4.45;70.51
71384;BME280;67558;52.166;5.004;2023-03-15T05:20:53;101630.81;;;4.46;70.63
71384;BME280;67558;52.166;5.004;2023-03-15T05:23:22;101636.94;;;4.46;70.61
71384;BME280;67558;52.166;5.004;2023-03-15T05:25:52;101642.66;;;4.50;70.47
71384;BME280;67558;52.166;5.004;2023-03-15T05:28:20;101642.22;;;4.46;70.13
71384;BME280;67558;52.166;5.004;2023-03-15T05:30:46;101657.94;;;4.48;70.09
71384;BME280;67558;52.166;5.004;2023-03-15T05:33:12;101674.22;;;4.51;70.12
71384;BME280;67558;52.166;5.004;2023-03-15T05:35:38;101683.19;;;4.50;69.68
71384;BME280;67558;52.166;5.004;2023-03-15T05:38:03;101675.06;;;4.45;69.67
71384;BME280;67558;52.166;5.004;2023-03-15T05:40:30;101678.72;;;4.44;69.61
71384;BME280;67558;52.166;5.004;2023-03-15T05:42:57;101679.13;;;4.41;69.55
71384;BME280;67558;52.166;5.004;2023-03-15T05:45:22;101673.41;;;4.31;69.69
71384;BME280;67558;52.166;5.004;2023-03-15T05:47:48;101681.97;;;4.33;69.03
71384;BME280;67558;52.166;5.004;2023-03-15T05:50:13;101695.41;;;4.25;69.67
71384;BME280;67558;52.166;5.004;2023-03-15T05:52:39;101683.34;;;4.09;69.66
71384;BME280;67558;52.166;5.004;2023-03-15T05:55:04;101701.91;;;4.16;69.25
71384;BME280;67558;52.166;5.004;2023-03-15T05:57:30;101701.91;;;4.09;69.28
71384;BME280;67558;52.166;5.004;2023-03-15T05:59:55;101701.06;;;4.08;69.68
71384;BME280;67558;52.166;5.004;2023-03-15T06:02:20;101704.72;;;4.07;69.57
71384;BME280;67558;52.166;5.004;2023-03-15T06:04:46;101701.28;;;4.07;69.41
71384;BME280;67558;52.166;5.004;2023-03-15T06:07:11;101699.00;;;4.04;69.49
71384;BME280;67558;52.166;5.004;2023-03-15T06:09:36;101698.41;;;4.02;69.38
71384;BME280;67558;52.166;5.004;2023-03-15T06:12:02;101696.59;;;4.02;69.66
71384;BME280;67558;52.166;5.004;2023-03-15T06:14:28;101705.16;;;4.04;69.39
71384;BME280;67558;52.166;5.004;2023-03-15T06:16:54;101709.41;;;4.05;69.64
71384;BME280;67558;52.166;5.004;2023-03-15T06:19:19;101718.78;;;4.08;69.49
71384;BME280;67558;52.166;5.004;2023-03-15T06:21:45;101704.09;;;3.99;69.48
71384;BME280;67558;52.166;5.004;2023-03-15T06:24:11;101732.22;;;4.06;69.47
71384;BME280;67558;52.166;5.004;2023-03-15T06:26:38;101733.25;;;4.05;69.87
71384;BME280;67558;52.166;5.004;2023-03-15T06:29:03;101736.69;;;4.06;70.20
71384;BME280;67558;52.166;5.004;2023-03-15T06:31:28;101754.00;;;4.08;69.92
71384;BME280;67558;52.166;5.004;2023-03-15T06:33:54;101749.53;;;4.02;69.84
71384;BME280;67558;52.166;5.004;2023-03-15T06:36:19;101765.44;;;4.09;70.14
71384;BME280;67558;52.166;5.004;2023-03-15T06:38:45;101758.31;;;4.09;69.99
71384;BME280;67558;52.166;5.004;2023-03-15T06:41:10;101770.34;;;4.12;69.75
71384;BME280;67558;52.166;5.004;2023-03-15T06:43:36;101765.81;;;4.06;70.18
71384;BME280;67558;52.166;5.004;2023-03-15T06:46:02;101780.31;;;4.10;70.54
71384;BME280;67558;52.166;5.004;2023-03-15T06:48:28;101776.44;;;4.13;70.05
71384;BME280;67558;52.166;5.004;2023-03-15T06:50:53;101781.53;;;4.14;69.93
71384;BME280;67558;52.166;5.004;2023-03-15T06:53:19;101782.16;;;4.16;70.53
71384;BME280;67558;52.166;5.004;2023-03-15T06:55:46;101788.50;;;4.22;70.48
71384;BME280;67558;52.166;5.004;2023-03-15T06:58:12;101789.16;;;4.30;70.32
71384;BME280;67558;52.166;5.004;2023-03-15T07:00:37;101792.44;;;4.39;70.77
71384;BME280;67558;52.166;5.004;2023-03-15T07:03:03;101798.56;;;4.53;70.80
71384;BME280;67558;52.166;5.004;2023-03-15T07:05:29;101802.28;;;4.72;70.88
71384;BME280;67558;52.166;5.004;2023-03-15T07:07:54;101786.38;;;4.85;70.93
71384;BME280;67558;52.166;5.004;2023-03-15T07:10:19;101797.22;;;5.10;71.07
71384;BME280;67558;52.166;5.004;2023-03-15T07:12:45;101799.44;;;5.33;71.02
71384;BME280;67558;52.166;5.004;2023-03-15T07:15:10;101801.44;;;5.58;70.88
71384;BME280;67558;52.166;5.004;2023-03-15T07:17:36;101797.09;;;5.84;71.18
71384;BME280;67558;52.166;5.004;2023-03-15T07:20:02;101810.28;;;6.10;70.96
71384;BME280;67558;52.166;5.004;2023-03-15T07:22:30;101809.59;;;6.35;70.68
71384;BME280;67558;52.166;5.004;2023-03-15T07:24:55;101815.34;;;6.64;70.24
71384;BME280;67558;52.166;5.004;2023-03-15T07:27:21;101825.16;;;6.95;69.53
71384;BME280;67558;52.166;5.004;2023-03-15T07:29:46;101821.63;;;7.26;68.49
71384;BME280;67558;52.166;5.004;2023-03-15T07:32:12;101824.22;;;7.58;68.17
71384;BME280;67558;52.166;5.004;2023-03-15T07:34:38;101814.31;;;7.84;67.99
71384;BME280;67558;52.166;5.004;2023-03-15T07:37:03;101829.41;;;8.08;67.24
71384;BME280;67558;52.166;5.004;2023-03-15T07:39:28;101817.16;;;8.19;66.72
71384;BME280;67558;52.166;5.004;2023-03-15T07:41:57;101832.88;;;8.46;66.05
71384;BME280;67558;52.166;5.004;2023-03-15T07:44:22;101836.88;;;8.67;65.44
71384;BME280;67558;52.166;5.004;2023-03-15T07:46:47;101849.25;;;8.91;64.71
71384;BME280;67558;52.166;5.004;2023-03-15T07:49:13;101845.47;;;9.11;63.78
71384;BME280;67558;52.166;5.004;2023-03-15T07:51:39;101852.81;;;9.27;63.52
71384;BME280;67558;52.166;5.004;2023-03-15T07:54:04;101854.66;;;9.38;62.05
71384;BME280;67558;52.166;5.004;2023-03-15T07:56:29;101852.34;;;9.54;61.24
71384;BME280;67558;52.166;5.004;2023-03-15T07:58:55;101855.72;;;9.73;60.41
71384;BME280;67558;52.166;5.004;2023-03-15T08:01:20;101861.50;;;9.81;59.97
71384;BME280;67558;52.166;5.004;2023-03-15T08:03:45;101862.75;;;9.91;59.31
71384;BME280;67558;52.166;5.004;2023-03-15T08:06:11;101876.13;;;10.02;59.08
71384;BME280;67558;52.166;5.004;2023-03-15T08:08:37;101881.44;;;10.14;58.20
71384;BME280;67558;52.166;5.004;2023-03-15T08:11:04;101880.16;;;10.17;57.50
71384;BME280;67558;52.166;5.004;2023-03-15T08:13:30;101877.91;;;10.25;57.20
71384;BME280;67558;52.166;5.004;2023-03-15T08:15:55;101874.78;;;10.29;57.00
71384;BME280;67558;52.166;5.004;2023-03-15T08:18:21;101891.31;;;10.37;56.07
71384;BME280;67558;52.166;5.004;2023-03-15T08:20:47;101883.22;;;10.49;55.30
71384;BME280;67558;52.166;5.004;2023-03-15T08:23:12;101886.91;;;10.60;55.11
71384;BME280;67558;52.166;5.004;2023-03-15T08:25:41;101892.81;;;10.74;54.84
71384;BME280;67558;52.166;5.004;2023-03-15T08:28:07;101887.59;;;10.84;55.01
71384;BME280;67558;52.166;5.004;2023-03-15T08:30:33;101888.59;;;10.95;54.47
71384;BME280;67558;52.166;5.004;2023-03-15T08:32:58;101898.47;;;11.06;54.20
71384;BME280;67558;52.166;5.004;2023-03-15T08:35:23;101894.13;;;11.05;53.49
71384;BME280;67558;52.166;5.004;2023-03-15T08:37:50;101900.06;;;11.07;52.72
71384;BME280;67558;52.166;5.004;2023-03-15T08:40:17;101916.81;;;11.14;51.32
71384;BME280;67558;52.166;5.004;2023-03-15T08:42:49;101909.66;;;11.20;51.08
71384;BME280;67558;52.166;5.004;2023-03-15T08:45:15;101907.47;;;11.17;50.34
71384;BME280;67558;52.166;5.004;2023-03-15T08:47:40;101911.59;;;11.24;50.06
71384;BME280;67558;52.166;5.004;2023-03-15T08:50:13;101918.75;;;11.19;49.33
71384;BME280;67558;52.166;5.004;2023-03-15T08:52:39;101918.56;;;11.09;49.75
71384;BME280;67558;52.166;5.004;2023-03-15T08:55:06;101913.94;;;11.04;49.74
71384;BME280;67558;52.166;5.004;2023-03-15T08:57:33;101922.72;;;10.99;49.34
71384;BME280;67558;52.166;5.004;2023-03-15T09:00:00;101917.75;;;10.91;49.69
71384;BME280;67558;52.166;5.004;2023-03-15T09:02:27;101918.31;;;10.93;49.39
71384;BME280;67558;52.166;5.004;2023-03-15T09:04:53;101915.28;;;10.90;49.48
71384;BME280;67558;52.166;5.004;2023-03-15T09:07:18;101924.69;;;10.92;49.41
71384;BME280;67558;52.166;5.004;2023-03-15T09:09:44;101924.25;;;10.95;49.38
71384;BME280;67558;52.166;5.004;2023-03-15T09:12:13;101921.28;;;10.80;49.07
71384;BME280;67558;52.166;5.004;2023-03-15T09:14:39;101923.38;;;10.78;48.46
71384;BME280;67558;52.166;5.004;2023-03-15T09:17:05;101919.06;;;10.77;48.90
71384;BME280;67558;52.166;5.004;2023-03-15T09:19:30;101915.25;;;10.73;49.42
71384;BME280;67558;52.166;5.004;2023-03-15T09:21:56;101920.59;;;10.73;49.56
71384;BME280;67558;52.166;5.004;2023-03-15T09:24:21;101904.09;;;10.64;49.32
71384;BME280;67558;52.166;5.004;2023-03-15T09:26:47;101914.44;;;10.72;48.85
71384;BME280;67558;52.166;5.004;2023-03-15T09:29:12;101912.72;;;10.66;48.89
71384;BME280;67558;52.166;5.004;2023-03-15T09:31:38;101922.53;;;10.60;48.82
71384;BME280;67558;52.166;5.004;2023-03-15T09:34:03;101911.13;;;10.53;48.74
71384;BME280;67558;52.166;5.004;2023-03-15T09:36:30;101923.94;;;10.51;48.83
71384;BME280;67558;52.166;5.004;2023-03-15T09:38:55;101932.91;;;10.45;48.82
71384;BME280;67558;52.166;5.004;2023-03-15T09:46:43;101934.44;;;10.29;49.04
71384;BME280;67558;52.166;5.004;2023-03-15T09:49:20;101922.13;;;10.16;48.35
71384;BME280;67558;52.166;5.004;2023-03-15T09:51:59;101932.94;;;10.10;48.12
71384;BME280;67558;52.166;5.004;2023-03-15T09:54:30;101929.13;;;9.94;47.84
71384;BME280;67558;52.166;5.004;2023-03-15T09:57:04;101924.00;;;9.80;48.33
71384;BME280;67558;52.166;5.004;2023-03-15T09:59:39;101933.78;;;9.75;49.42
71384;BME280;67558;52.166;5.004;2023-03-15T10:02:24;101937.38;;;9.69;49.92
71384;BME280;67558;52.166;5.004;2023-03-15T10:04:55;101933.41;;;9.71;49.88
71384;BME280;67558;52.166;5.004;2023-03-15T10:07:22;101934.47;;;9.70;50.78
71384;BME280;67558;52.166;5.004;2023-03-15T10:09:48;101931.81;;;9.70;50.62
71384;BME280;67558;52.166;5.004;2023-03-15T10:12:15;101928.06;;;9.71;50.84
71384;BME280;67558;52.166;5.004;2023-03-15T10:20:26;101938.97;;;9.70;50.73
71384;BME280;67558;52.166;5.004;2023-03-15T10:25:49;101940.84;;;9.69;50.63
71384;BME280;67558;52.166;5.004;2023-03-15T10:28:27;101940.16;;;9.62;49.63
71384;BME280;67558;52.166;5.004;2023-03-15T10:30:57;101941.06;;;9.68;49.90
71384;BME280;67558;52.166;5.004;2023-03-15T10:33:33;101954.22;;;9.69;50.03
71384;BME280;67558;52.166;5.004;2023-03-15T10:36:01;101952.59;;;9.68;50.32
71384;BME280;67558;52.166;5.004;2023-03-15T10:38:28;101945.25;;;9.63;49.73
71384;BME280;67558;52.166;5.004;2023-03-15T10:40:56;101954.09;;;9.64;49.91
71384;BME280;67558;52.166;5.004;2023-03-15T10:43:30;101950.59;;;9.63;49.76
71384;BME280;67558;52.166;5.004;2023-03-15T10:46:06;101956.41;;;9.60;49.46
71384;BME280;67558;52.166;5.004;2023-03-15T10:48:35;101953.94;;;9.59;49.39
71384;BME280;67558;52.166;5.004;2023-03-15T10:51:30;101959.19;;;9.54;49.01
71384;BME280;67558;52.166;5.004;2023-03-15T10:54:17;101971.16;;;9.51;49.63
71384;BME280;67558;52.166;5.004;2023-03-15T10:56:55;101977.50;;;9.50;49.61
71384;BME280;67558;52.166;5.004;2023-03-15T10:59:24;101978.09;;;9.52;49.37
71384;BME280;67558;52.166;5.004;2023-03-15T11:01:51;101973.34;;;9.54;49.13
71384;BME280;67558;52.166;5.004;2023-03-15T11:04:20;101970.44;;;9.56;48.83
71384;BME280;67558;52.166;5.004;2023-03-15T11:06:59;101981.13;;;9.56;48.20
71384;BME280;67558;52.166;5.004;2023-03-15T11:09:37;101993.44;;;9.57;48.36
71384;BME280;67558;52.166;5.004;2023-03-15T11:12:05;101996.94;;;9.57;47.65
71384;BME280;67558;52.166;5.004;2023-03-15T11:14:37;101993.69;;;9.55;47.34
71384;BME280;67558;52.166;5.004;2023-03-15T11:17:05;101999.38;;;9.59;46.97
71384;BME280;67558;52.166;5.004;2023-03-15T11:19:35;101996.09;;;9.57;47.43
71384;BME280;67558;52.166;5.004;2023-03-15T11:22:03;101992.84;;;9.55;47.22
71384;BME280;67558;52.166;5.004;2023-03-15T11:24:31;101988.09;;;9.57;47.36
71384;BME280;67558;52.166;5.004;2023-03-15T11:26:59;101986.38;;;9.62;47.67
71384;BME280;67558;52.166;5.004;2023-03-15T11:31:54;101987.91;;;9.70;45.84
71384;BME280;67558;52.166;5.004;2023-03-15T11:34:30;101989.16;;;9.68;46.09
71384;BME280;67558;52.166;5.004;2023-03-15T11:37:02;101984.88;;;9.67;46.10
71384;BME280;67558;52.166;5.004;2023-03-15T11:39:44;101994.28;;;9.69;46.30
71384;BME280;67558;52.166;5.004;2023-03-15T11:42:19;101993.59;;;9.74;45.90
71384;BME280;67558;52.166;5.004;2023-03-15T11:44:47;101989.63;;;9.76;45.70
71384;BME280;67558;52.166;5.004;2023-03-15T11:47:40;101984.53;;;9.75;45.31
71384;BME280;67558;52.166;5.004;2023-03-15T11:50:11;101978.13;;;9.76;44.83
71384;BME280;67558;52.166;5.004;2023-03-15T11:52:37;101987.53;;;9.78;44.96
71384;BME280;67558;52.166;5.004;2023-03-15T11:55:04;101971.50;;;9.78;44.53
71384;BME280;67558;52.166;5.004;2023-03-15T11:57:46;101964.44;;;9.72;44.02
71384;BME280;67558;52.166;5.004;2023-03-15T12:02:57;101984.44;;;9.81;44.46
71384;BME280;67558;52.166;5.004;2023-03-15T12:05:44;101986.41;;;9.86;43.63
71384;BME280;67558;52.166;5.004;2023-03-15T12:10:45;101988.25;;;9.97;44.30
71384;BME280;67558;52.166;5.004;2023-03-15T12:13:37;101988.03;;;9.99;44.10
71384;BME280;67558;52.166;5.004;2023-03-15T12:16:05;102000.34;;;10.00;43.65
71384;BME280;67558;52.166;5.004;2023-03-15T12:18:40;102007.34;;;10.01;43.57
71384;BME280;67558;52.166;5.004;2023-03-15T12:21:09;102003.38;;;10.03;44.15
71384;BME280;67558;52.166;5.004;2023-03-15T12:23:42;101997.81;;;10.05;44.16
71384;BME280;67558;52.166;5.004;2023-03-15T12:26:23;101994.78;;;10.01;42.96
71384;BME280;67558;52.166;5.004;2023-03-15T12:34:26;102004.44;;;10.14;43.86
71384;BME280;67558;52.166;5.004;2023-03-15T12:36:56;101985.72;;;10.14;44.09
71384;BME280;67558;52.166;5.004;2023-03-15T12:39:39;101998.97;;;10.21;43.97
71384;BME280;67558;52.166;5.004;2023-03-15T12:42:05;101988.03;;;10.22;44.02
71384;BME280;67558;52.166;5.004;2023-03-15T12:47:00;101994.53;;;10.27;44.19
71384;BME280;67558;52.166;5.004;2023-03-15T12:55:11;101991.41;;;10.30;42.77
71384;BME280;67558;52.166;5.004;2023-03-15T12:57:46;101983.28;;;10.24;42.46
71384;BME280;67558;52.166;5.004;2023-03-15T13:00:22;101985.84;;;10.31;42.93
71384;BME280;67558;52.166;5.004;2023-03-15T13:03:09;101997.34;;;10.32;42.67
71384;BME280;67558;52.166;5.004;2023-03-15T13:16:26;101966.88;;;10.44;42.48
71384;BME280;67558;52.166;5.004;2023-03-15T13:21:34;101967.66;;;10.45;42.55
71384;BME280;67558;52.166;5.004;2023-03-15T13:24:01;101972.56;;;10.48;42.89
71384;BME280;67558;52.166;5.004;2023-03-15T13:31:36;101972.09;;;10.51;42.16
71384;BME280;67558;52.166;5.004;2023-03-15T13:34:20;101987.88;;;10.64;42.12
71384;BME280;67558;52.166;5.004;2023-03-15T13:36:53;101993.56;;;10.68;42.49
71384;BME280;67558;52.166;5.004;2023-03-15T13:39:25;101990.19;;;10.73;42.50
71384;BME280;67558;52.166;5.004;2023-03-15T13:42:14;101988.88;;;10.75;41.96
71384;BME280;67558;52.166;5.004;2023-03-15T13:44:41;101995.41;;;10.79;42.36
71384;BME280;67558;52.166;5.004;2023-03-15T13:47:06;101995.06;;;10.76;41.75
71384;BME280;67558;52.166;5.004;2023-03-15T13:49:32;101988.06;;;10.75;42.10
71384;BME280;67558;52.166;5.004;2023-03-15T13:52:01;101982.28;;;10.78;41.86
71384;BME280;67558;52.166;5.004;2023-03-15T13:54:32;101984.69;;;10.79;41.63
71384;BME280;67558;52.166;5.004;2023-03-15T13:57:02;101990.38;;;10.83;41.80
71384;BME280;67558;52.166;5.004;2023-03-15T13:59:40;101994.44;;;10.85;41.96
71384;BME280;67558;52.166;5.004;2023-03-15T14:02:23;101975.94;;;10.84;41.59
71384;BME280;67558;52.166;5.004;2023-03-15T14:04:58;101986.28;;;10.92;41.47